createdAt,value
2022-09-07T00:00:28.753Z,15.41
2022-09-07T00:01:28.524Z,15.45
2022-09-07T00:02:28.537Z,15.48
2022-09-07T00:03:28.677Z,15.51
2022-09-07T00:04:28.546Z,15.52
2022-09-07T00:05:28.593Z,15.57
2022-09-07T00:06:28.435Z,15.62
2022-09-07T00:07:28.514Z,15.62
2022-09-07T00:08:28.495Z,15.67
2022-09-07T00:09:28.514Z,15.66
2022-09-07T00:10:28.365Z,15.67
2022-09-07T00:11:28.430Z,15.66
2022-09-07T00:12:28.368Z,15.66
2022-09-07T00:13:28.604Z,15.65
2022-09-07T00:14:28.369Z,15.63
2022-09-07T00:15:28.519Z,15.59
2022-09-07T00:16:28.499Z,15.55
2022-09-07T00:17:28.290Z,15.54
2022-09-07T00:18:28.399Z,15.50
2022-09-07T00:19:28.519Z,15.47
2022-09-07T00:20:28.360Z,15.45
2022-09-07T00:21:28.281Z,15.39
2022-09-07T00:22:28.219Z,15.35
2022-09-07T00:23:28.213Z,15.32
2022-09-07T00:24:28.193Z,15.32
2022-09-07T00:25:30.829Z,15.30
2022-09-07T00:26:28.165Z,15.29
2022-09-07T00:27:28.264Z,15.26
2022-09-07T00:28:28.203Z,15.25
2022-09-07T00:29:28.202Z,15.23
2022-09-07T00:30:28.385Z,15.19
2022-09-07T00:31:28.289Z,15.17
2022-09-07T00:32:28.164Z,15.15
2022-09-07T00:33:28.183Z,15.11
2022-09-07T00:34:28.050Z,15.10
2022-09-07T00:35:28.052Z,15.10
2022-09-07T00:36:28.049Z,15.10
2022-09-07T00:37:28.269Z,15.05
2022-09-07T00:38:28.126Z,15.05
2022-09-07T00:39:28.240Z,15.05
2022-09-07T00:40:28.039Z,15.05
2022-09-07T00:41:27.938Z,15.04
2022-09-07T00:42:28.379Z,15.02
2022-09-07T00:43:27.919Z,15.04
2022-09-07T00:44:28.058Z,15.04
2022-09-07T00:45:27.904Z,15.02
2022-09-07T00:46:28.171Z,14.99
2022-09-07T00:47:27.954Z,14.96
2022-09-07T00:48:28.085Z,14.94
2022-09-07T00:49:27.884Z,14.92
2022-09-07T00:50:27.823Z,14.87
2022-09-07T00:51:27.903Z,14.89
2022-09-07T00:52:28.065Z,14.87
2022-09-07T00:53:27.944Z,14.86
2022-09-07T00:54:27.780Z,14.85
2022-09-07T00:55:27.886Z,14.86
2022-09-07T00:56:27.739Z,14.85
2022-09-07T00:57:27.909Z,14.82
2022-09-07T00:58:28.215Z,14.82
2022-09-07T00:59:27.902Z,14.79
2022-09-07T01:00:27.727Z,14.78
2022-09-07T01:01:28.008Z,14.77
2022-09-07T01:02:27.839Z,14.77
2022-09-07T01:03:27.958Z,14.78
2022-09-07T01:04:27.629Z,14.77
2022-09-07T01:05:27.619Z,14.77
2022-09-07T01:06:27.739Z,14.78
2022-09-07T01:07:27.598Z,14.77
2022-09-07T01:08:27.726Z,14.74
2022-09-07T01:09:27.685Z,14.77
2022-09-07T01:10:27.554Z,14.74
2022-09-07T01:11:27.558Z,14.73
2022-09-07T01:12:27.744Z,14.71
2022-09-07T01:13:27.586Z,14.70
2022-09-07T01:14:27.505Z,14.68
2022-09-07T01:15:27.591Z,14.67
2022-09-07T01:16:27.804Z,14.67
2022-09-07T01:17:27.584Z,14.68
2022-09-07T01:18:27.433Z,14.70
2022-09-07T01:19:27.578Z,14.67
2022-09-07T01:20:27.491Z,14.66
2022-09-07T01:21:27.579Z,14.63
2022-09-07T01:22:27.429Z,14.63
2022-09-07T01:23:27.582Z,14.61
2022-09-07T01:24:27.430Z,14.61
2022-09-07T01:25:27.578Z,14.63
2022-09-07T01:26:27.399Z,14.62
2022-09-07T01:27:27.319Z,14.61
2022-09-07T01:28:27.479Z,14.58
2022-09-07T01:29:27.289Z,14.56
2022-09-07T01:30:27.479Z,14.56
2022-09-07T01:31:27.330Z,14.55
2022-09-07T01:32:27.264Z,14.53
2022-09-07T01:33:27.253Z,14.52
2022-09-07T01:34:27.233Z,14.51
2022-09-07T01:35:27.283Z,14.49
2022-09-07T01:36:27.263Z,14.48
2022-09-07T01:37:27.265Z,14.45
2022-09-07T01:38:27.541Z,14.45
2022-09-07T01:39:27.279Z,14.44
2022-09-07T01:40:27.135Z,14.41
2022-09-07T01:41:27.183Z,14.43
2022-09-07T01:42:27.136Z,14.41
2022-09-07T01:43:27.258Z,14.38
2022-09-07T01:44:27.107Z,14.37
2022-09-07T01:45:27.268Z,14.36
2022-09-07T01:46:27.124Z,14.34
2022-09-07T01:47:27.319Z,14.33
2022-09-07T01:48:27.150Z,14.31
2022-09-07T01:49:27.241Z,14.30
2022-09-07T01:50:27.099Z,14.30
2022-09-07T01:51:27.259Z,14.28
2022-09-07T01:52:27.140Z,14.26
2022-09-07T01:53:26.969Z,14.28
2022-09-07T01:54:27.104Z,14.26
2022-09-07T01:55:27.346Z,14.30
2022-09-07T01:56:26.934Z,14.28
2022-09-07T01:57:26.946Z,14.25
2022-09-07T01:58:26.995Z,14.28
2022-09-07T01:59:26.953Z,14.25
2022-09-07T02:00:27.105Z,14.22
2022-09-07T02:01:27.038Z,14.22
2022-09-07T02:02:27.121Z,14.22
2022-09-07T02:03:26.946Z,14.20
2022-09-07T02:04:26.884Z,14.20
2022-09-07T02:05:26.942Z,14.19
2022-09-07T02:06:27.089Z,14.16
2022-09-07T02:07:26.778Z,14.16
2022-09-07T02:08:26.825Z,14.16
2022-09-07T02:09:26.818Z,14.16
2022-09-07T02:10:26.779Z,14.16
2022-09-07T02:11:26.730Z,14.15
2022-09-07T02:12:26.785Z,14.15
2022-09-07T02:13:26.940Z,14.15
2022-09-07T02:14:26.768Z,14.13
2022-09-07T02:15:26.719Z,14.12
2022-09-07T02:16:26.770Z,14.11
2022-09-07T02:17:26.635Z,14.08
2022-09-07T02:18:26.883Z,14.08
2022-09-07T02:19:26.626Z,14.11
2022-09-07T02:20:26.653Z,14.07
2022-09-07T02:21:26.674Z,14.08
2022-09-07T02:22:26.574Z,14.07
2022-09-07T02:23:26.604Z,14.07
2022-09-07T02:24:26.565Z,14.07
2022-09-07T02:25:26.626Z,14.04
2022-09-07T02:26:26.517Z,14.04
2022-09-07T02:27:26.944Z,14.03
2022-09-07T02:28:26.659Z,14.04
2022-09-07T02:29:30.776Z,14.03
2022-09-07T02:30:26.468Z,14.04
2022-09-07T02:31:26.739Z,14.03
2022-09-07T02:32:26.518Z,14.04
2022-09-07T02:33:26.429Z,14.01
2022-09-07T02:34:26.469Z,14.01
2022-09-07T02:35:26.598Z,14.01
2022-09-07T02:36:26.459Z,14.03
2022-09-07T02:37:26.600Z,14.01
2022-09-07T02:38:26.835Z,14.01
2022-09-07T02:39:26.412Z,14.00
2022-09-07T02:40:26.458Z,14.01
2022-09-07T02:41:26.344Z,14.01
2022-09-07T02:42:26.445Z,13.98
2022-09-07T02:43:26.624Z,13.98
2022-09-07T02:44:26.274Z,13.97
2022-09-07T02:45:26.307Z,13.95
2022-09-07T02:46:26.378Z,13.93
2022-09-07T02:47:26.283Z,13.91
2022-09-07T02:48:26.215Z,13.93
2022-09-07T02:49:26.344Z,13.91
2022-09-07T02:50:26.433Z,13.94
2022-09-07T02:51:26.273Z,13.93
2022-09-07T02:52:26.164Z,13.93
2022-09-07T02:53:26.279Z,13.93
2022-09-07T02:54:26.219Z,13.89
2022-09-07T02:55:26.129Z,13.89
2022-09-07T02:56:26.138Z,13.87
2022-09-07T02:57:26.278Z,13.86
2022-09-07T02:58:26.156Z,13.85
2022-09-07T02:59:26.069Z,13.86
2022-09-07T03:00:26.331Z,13.87
2022-09-07T03:01:26.113Z,13.89
2022-09-07T03:02:26.102Z,13.89
2022-09-07T03:03:26.009Z,13.89
2022-09-07T03:04:26.019Z,13.91
2022-09-07T03:05:26.303Z,13.86
2022-09-07T03:06:26.195Z,13.86
2022-09-07T03:07:25.974Z,13.85
2022-09-07T03:08:26.203Z,13.85
2022-09-07T03:09:25.964Z,13.86
2022-09-07T03:10:25.923Z,13.85
2022-09-07T03:11:25.984Z,13.85
2022-09-07T03:12:26.193Z,13.82
2022-09-07T03:13:26.004Z,13.82
2022-09-07T03:14:25.865Z,13.80
2022-09-07T03:15:26.034Z,13.80
2022-09-07T03:16:26.123Z,13.79
2022-09-07T03:17:25.889Z,13.80
2022-09-07T03:18:25.899Z,13.79
2022-09-07T03:19:25.959Z,13.79
2022-09-07T03:20:25.820Z,13.76
2022-09-07T03:21:25.769Z,13.76
2022-09-07T03:22:25.799Z,13.75
2022-09-07T03:23:25.809Z,13.76
2022-09-07T03:24:25.798Z,13.78
2022-09-07T03:25:25.707Z,13.78
2022-09-07T03:26:25.799Z,13.79
2022-09-07T03:27:25.958Z,13.79
2022-09-07T03:28:25.858Z,13.79
2022-09-07T03:29:25.663Z,13.80
2022-09-07T03:30:25.823Z,13.82
2022-09-07T03:31:25.763Z,13.83
2022-09-07T03:32:25.824Z,13.83
2022-09-07T03:33:25.643Z,13.85
2022-09-07T03:34:26.151Z,13.87
2022-09-07T03:35:25.643Z,13.91
2022-09-07T03:36:25.844Z,13.95
2022-09-07T03:37:25.677Z,14.01
2022-09-07T03:38:25.803Z,14.07
2022-09-07T03:39:25.698Z,14.15
2022-09-07T03:40:25.573Z,14.23
2022-09-07T03:41:25.508Z,14.25
2022-09-07T03:42:25.488Z,14.33
2022-09-07T03:43:25.479Z,14.34
2022-09-07T03:44:25.500Z,14.37
2022-09-07T03:45:25.452Z,14.40
2022-09-07T03:46:25.600Z,14.43
2022-09-07T03:47:25.413Z,14.44
2022-09-07T03:48:25.489Z,14.45
2022-09-07T03:49:25.639Z,14.44
2022-09-07T03:50:25.488Z,14.45
2022-09-07T03:51:25.428Z,14.45
2022-09-07T03:52:25.478Z,14.45
2022-09-07T03:53:25.343Z,14.45
2022-09-07T03:54:25.323Z,14.45
2022-09-07T03:55:25.324Z,14.49
2022-09-07T03:56:25.295Z,14.49
2022-09-07T03:57:25.383Z,14.52
2022-09-07T03:58:25.382Z,14.52
2022-09-07T03:59:25.324Z,14.49
2022-09-07T04:00:25.483Z,14.51
2022-09-07T04:01:25.411Z,14.49
2022-09-07T04:02:25.343Z,14.51
2022-09-07T04:03:25.333Z,14.48
2022-09-07T04:04:25.198Z,14.49
2022-09-07T04:05:25.352Z,14.48
2022-09-07T04:06:25.171Z,14.48
2022-09-07T04:07:25.328Z,14.49
2022-09-07T04:08:25.294Z,14.49
2022-09-07T04:09:25.119Z,14.49
2022-09-07T04:10:25.159Z,14.49
2022-09-07T04:11:25.339Z,14.52
2022-09-07T04:12:25.158Z,14.55
2022-09-07T04:13:25.138Z,14.61
2022-09-07T04:14:25.158Z,14.63
2022-09-07T04:15:25.318Z,14.67
2022-09-07T04:16:25.282Z,14.68
2022-09-07T04:17:25.024Z,14.73
2022-09-07T04:18:25.276Z,14.77
2022-09-07T04:19:25.023Z,14.77
2022-09-07T04:20:25.164Z,14.81
2022-09-07T04:21:25.023Z,14.82
2022-09-07T04:22:24.944Z,14.85
2022-09-07T04:23:25.025Z,14.87
2022-09-07T04:24:24.963Z,14.89
2022-09-07T04:25:25.004Z,14.92
2022-09-07T04:26:25.154Z,14.97
2022-09-07T04:27:25.023Z,15.00
2022-09-07T04:28:24.999Z,15.02
2022-09-07T04:29:24.908Z,15.05
2022-09-07T04:30:24.840Z,15.08
2022-09-07T04:31:24.914Z,15.11
2022-09-07T04:32:24.848Z,15.11
2022-09-07T04:33:24.789Z,15.14
2022-09-07T04:34:24.908Z,15.17
2022-09-07T04:35:25.019Z,15.19
2022-09-07T04:36:24.982Z,15.19
2022-09-07T04:37:25.009Z,15.23
2022-09-07T04:38:24.843Z,15.25
2022-09-07T04:39:24.759Z,15.27
2022-09-07T04:40:24.866Z,15.27
2022-09-07T04:41:24.695Z,15.26
2022-09-07T04:42:24.684Z,15.27
2022-09-07T04:43:24.704Z,15.29
2022-09-07T04:44:24.863Z,15.29
2022-09-07T04:45:24.753Z,15.32
2022-09-07T04:46:24.918Z,15.30
2022-09-07T04:47:24.695Z,15.32
2022-09-07T04:48:24.937Z,15.32
2022-09-07T04:49:24.683Z,15.32
2022-09-07T04:50:24.654Z,15.35
2022-09-07T04:51:24.684Z,15.37
2022-09-07T04:52:24.539Z,15.39
2022-09-07T04:53:24.519Z,15.43
2022-09-07T04:54:24.517Z,15.44
2022-09-07T04:55:24.499Z,15.47
2022-09-07T04:56:24.619Z,15.47
2022-09-07T04:57:24.681Z,15.50
2022-09-07T04:58:24.614Z,15.52
2022-09-07T04:59:24.439Z,15.54
2022-09-07T05:00:24.418Z,15.55
2022-09-07T05:01:24.551Z,15.57
2022-09-07T05:02:24.593Z,15.59
2022-09-07T05:03:24.369Z,15.59
2022-09-07T05:04:24.376Z,15.60
2022-09-07T05:05:24.363Z,15.63
2022-09-07T05:06:24.364Z,15.63
2022-09-07T05:07:24.434Z,15.63
2022-09-07T05:08:24.627Z,15.65
2022-09-07T05:09:24.373Z,15.67
2022-09-07T05:10:24.293Z,15.72
2022-09-07T05:11:28.691Z,15.72
2022-09-07T05:12:24.256Z,15.72
2022-09-07T05:13:24.353Z,15.76
2022-09-07T05:14:24.283Z,15.84
2022-09-07T05:15:24.220Z,15.87
2022-09-07T05:16:24.330Z,15.90
2022-09-07T05:17:24.188Z,15.88
2022-09-07T05:18:24.254Z,15.91
2022-09-07T05:19:24.158Z,15.92
2022-09-07T05:20:24.538Z,15.99
2022-09-07T05:21:24.149Z,16.03
2022-09-07T05:22:24.209Z,16.06
2022-09-07T05:23:24.358Z,16.05
2022-09-07T05:24:24.200Z,16.03
2022-09-07T05:25:24.419Z,16.00
2022-09-07T05:26:24.226Z,15.96
2022-09-07T05:27:24.082Z,15.92
2022-09-07T05:28:24.208Z,15.92
2022-09-07T05:31:24.081Z,15.96
2022-09-07T05:32:24.204Z,15.96
2022-09-07T05:34:31.748Z,15.96
2022-09-07T05:35:24.033Z,15.99
2022-09-07T05:36:24.254Z,16.06
2022-09-07T05:37:24.115Z,16.03
2022-09-07T05:38:24.038Z,16.03
2022-09-07T05:39:24.045Z,16.03
2022-09-07T05:40:23.898Z,16.09
2022-09-07T05:41:23.869Z,16.13
2022-09-07T05:42:23.958Z,16.16
2022-09-07T05:43:24.039Z,16.22
2022-09-07T05:45:24.136Z,16.31
2022-09-07T05:46:23.899Z,16.36
2022-09-07T05:47:23.788Z,16.36
2022-09-07T05:48:23.819Z,16.41
2022-09-07T05:49:23.769Z,16.47
2022-09-07T05:50:23.883Z,16.57
2022-09-07T05:51:24.063Z,16.61
2022-09-07T05:52:23.885Z,16.65
2022-09-07T05:53:23.794Z,16.68
2022-09-07T05:54:23.884Z,16.69
2022-09-07T05:55:30.956Z,16.74
2022-09-07T05:56:23.876Z,16.77
2022-09-07T05:57:23.734Z,16.84
2022-09-07T05:58:23.944Z,16.94
2022-09-07T05:59:23.723Z,17.02
2022-09-07T06:00:23.616Z,17.13
2022-09-07T06:01:23.732Z,17.19
2022-09-07T06:02:23.690Z,17.24
2022-09-07T06:03:23.731Z,17.20
2022-09-07T06:04:23.571Z,17.27
2022-09-07T06:05:23.719Z,17.35
2022-09-07T06:06:23.559Z,17.31
2022-09-07T06:07:23.771Z,17.27
2022-09-07T06:08:23.589Z,17.27
2022-09-07T06:09:27.237Z,17.30
2022-09-07T06:11:23.468Z,17.35
2022-09-07T06:12:23.569Z,17.32
2022-09-07T06:13:23.733Z,17.30
2022-09-07T06:14:23.633Z,17.31
2022-09-07T06:15:23.414Z,17.31
2022-09-07T06:16:23.478Z,17.34
2022-09-07T06:17:23.406Z,17.38
2022-09-07T06:18:23.570Z,17.42
2022-09-07T06:19:23.463Z,17.42
2022-09-07T06:20:23.564Z,17.49
2022-09-07T06:21:23.403Z,17.53
2022-09-07T06:22:26.666Z,17.52
2022-09-07T06:23:23.446Z,17.41
2022-09-07T06:24:23.908Z,17.27
2022-09-07T06:25:23.409Z,17.22
2022-09-07T06:26:23.269Z,17.27
2022-09-07T06:27:23.418Z,17.31
2022-09-07T06:28:23.239Z,17.41
2022-09-07T06:29:23.249Z,17.56
2022-09-07T06:30:23.580Z,17.75
2022-09-07T06:31:23.630Z,17.78
2022-09-07T06:33:23.421Z,18.28
2022-09-07T06:34:23.260Z,18.61
2022-09-07T06:35:23.145Z,18.83
2022-09-07T06:36:23.313Z,18.85
2022-09-07T06:37:23.118Z,19.09
2022-09-07T06:38:23.233Z,19.37
2022-09-07T06:39:23.083Z,19.53
2022-09-07T06:40:23.075Z,19.62
2022-09-07T06:42:23.055Z,19.57
2022-09-07T06:43:23.074Z,19.47
2022-09-07T06:44:23.234Z,19.45
2022-09-07T06:45:23.195Z,19.60
2022-09-07T06:47:23.148Z,20.27
2022-09-07T06:48:22.969Z,20.74
2022-09-07T06:49:23.079Z,21.33
2022-09-07T06:50:22.938Z,21.99
2022-09-07T06:51:22.919Z,22.36
2022-09-07T06:52:23.071Z,22.51
2022-09-07T06:53:40.449Z,22.51
2022-09-07T06:55:22.878Z,22.51
2022-09-07T06:56:22.922Z,22.47
2022-09-07T06:57:22.908Z,22.62
2022-09-07T06:58:22.934Z,23.07
2022-09-07T06:59:22.821Z,23.71
2022-09-07T07:00:22.924Z,23.85
2022-09-07T07:01:22.849Z,24.43
2022-09-07T07:02:22.947Z,25.30
2022-09-07T07:03:22.864Z,26.11
2022-09-07T07:04:22.933Z,26.66
2022-09-07T07:05:22.754Z,27.22
2022-09-07T07:06:22.734Z,27.60
2022-09-07T07:07:22.768Z,27.90
2022-09-07T07:08:22.759Z,28.16
2022-09-07T07:09:22.778Z,28.13
2022-09-07T07:10:25.015Z,28.25
2022-09-07T07:11:22.770Z,28.59
2022-09-07T07:12:52.784Z,28.80
2022-09-07T07:13:53.499Z,29.12
2022-09-07T07:14:53.509Z,28.80
2022-09-07T07:15:53.472Z,28.33
2022-09-07T07:16:53.471Z,28.33
2022-09-07T07:18:00.331Z,28.60
2022-09-07T07:18:53.513Z,29.00
2022-09-07T07:19:53.483Z,29.34
2022-09-07T07:20:53.668Z,29.44
2022-09-07T07:22:53.404Z,29.52
2022-09-07T07:23:53.504Z,29.64
2022-09-07T07:24:53.417Z,29.92
2022-09-07T07:25:53.494Z,29.89
2022-09-07T07:26:53.333Z,29.64
2022-09-07T07:27:53.702Z,29.83
2022-09-07T07:29:02.157Z,29.89
2022-09-07T07:29:53.518Z,29.94
2022-09-07T07:30:53.320Z,30.16
2022-09-07T07:31:53.273Z,30.16
2022-09-07T07:32:53.370Z,30.11
2022-09-07T07:33:53.322Z,29.95
2022-09-07T07:34:53.638Z,30.16
2022-09-07T07:35:53.479Z,29.79
2022-09-07T07:36:53.335Z,30.06
2022-09-07T07:39:01.979Z,29.92
2022-09-07T07:41:53.711Z,29.99
2022-09-07T07:42:53.124Z,30.01
2022-09-07T07:43:53.164Z,29.83
2022-09-07T07:46:53.203Z,29.34
2022-09-07T07:47:53.179Z,29.67
2022-09-07T07:48:53.060Z,29.61
2022-09-07T07:50:30.727Z,29.87
2022-09-07T07:50:53.321Z,29.84
2022-09-07T07:53:52.994Z,29.39
2022-09-07T07:54:53.009Z,28.40
2022-09-07T07:55:52.985Z,28.06
2022-09-07T07:56:53.084Z,28.28
2022-09-07T07:57:52.935Z,28.49
2022-09-07T07:58:53.014Z,28.80
2022-09-07T07:59:53.166Z,29.03
2022-09-07T08:00:55.612Z,29.46
2022-09-07T08:01:53.382Z,29.28
2022-09-07T08:02:52.940Z,28.97
2022-09-07T08:03:52.845Z,29.25
2022-09-07T08:04:52.840Z,29.46
2022-09-07T08:05:52.849Z,29.81
2022-09-07T08:06:52.879Z,30.10
2022-09-07T08:07:52.839Z,29.95
2022-09-07T08:08:52.809Z,30.26
2022-09-07T08:09:52.768Z,30.31
2022-09-07T08:10:53.013Z,30.10
2022-09-07T08:11:52.929Z,30.24
2022-09-07T08:12:52.998Z,30.32
2022-09-07T08:13:52.849Z,30.01
2022-09-07T08:14:52.706Z,29.76
2022-09-07T08:15:52.747Z,29.90
2022-09-07T08:16:52.700Z,30.20
2022-09-07T08:17:52.914Z,30.55
2022-09-07T08:18:52.684Z,30.96
2022-09-07T08:19:52.844Z,30.89
2022-09-07T08:20:52.704Z,30.93
2022-09-07T08:21:52.603Z,31.07
2022-09-07T08:22:52.734Z,31.22
2022-09-07T08:23:52.871Z,30.43
2022-09-07T08:24:52.700Z,30.65
2022-09-07T08:25:52.578Z,30.65
2022-09-07T08:26:52.679Z,30.91
2022-09-07T08:27:52.591Z,30.99
2022-09-07T08:28:52.509Z,30.89
2022-09-07T08:29:52.528Z,31.04
2022-09-07T08:30:52.688Z,31.23
2022-09-07T08:31:52.591Z,31.36
2022-09-07T08:32:52.555Z,31.45
2022-09-07T08:33:52.526Z,31.42
2022-09-07T08:34:52.693Z,31.13
2022-09-07T08:35:52.523Z,31.30
2022-09-07T08:36:52.704Z,31.50
2022-09-07T08:37:52.593Z,31.47
2022-09-07T08:38:52.743Z,31.54
2022-09-07T08:39:52.570Z,31.73
2022-09-07T08:40:52.364Z,32.07
2022-09-07T08:41:52.369Z,31.52
2022-09-07T08:42:52.379Z,31.57
2022-09-07T08:43:52.388Z,31.86
2022-09-07T08:44:52.358Z,32.01
2022-09-07T08:45:52.309Z,32.05
2022-09-07T08:46:52.429Z,31.92
2022-09-07T08:47:52.275Z,30.63
2022-09-07T08:48:52.419Z,29.58
2022-09-07T08:49:52.534Z,29.96
2022-09-07T08:50:52.363Z,30.17
2022-09-07T08:51:52.234Z,30.56
2022-09-07T08:52:52.323Z,30.86
2022-09-07T08:53:52.274Z,30.99
2022-09-07T08:54:52.478Z,30.99
2022-09-07T08:55:52.173Z,30.39
2022-09-07T08:57:52.247Z,29.83
2022-09-07T08:58:52.141Z,28.52
2022-09-07T08:59:52.291Z,27.75
2022-09-07T09:01:30.808Z,27.03
2022-09-07T09:05:52.104Z,28.04
2022-09-07T09:06:52.178Z,27.83
2022-09-07T09:07:52.204Z,28.06
2022-09-07T09:08:52.043Z,27.91
2022-09-07T09:09:52.004Z,27.23
2022-09-07T09:10:52.116Z,26.37
2022-09-07T09:11:51.974Z,26.30
2022-09-07T09:12:52.043Z,26.85
2022-09-07T09:13:51.944Z,27.38
2022-09-07T09:14:52.043Z,27.68
2022-09-07T09:15:52.400Z,27.53
2022-09-07T09:16:52.040Z,27.25
2022-09-07T09:17:51.911Z,27.19
2022-09-07T09:18:51.899Z,26.81
2022-09-07T09:19:51.899Z,26.42
2022-09-07T09:20:52.137Z,26.18
2022-09-07T09:21:51.879Z,26.22
2022-09-07T09:22:51.829Z,25.96
2022-09-07T09:23:51.878Z,25.85
2022-09-07T09:24:51.834Z,25.78
2022-09-07T09:25:51.894Z,26.36
2022-09-07T09:26:51.881Z,26.78
2022-09-07T09:27:51.883Z,27.00
2022-09-07T09:28:51.753Z,27.19
2022-09-07T09:29:51.885Z,26.79
2022-09-07T09:30:51.780Z,26.59
2022-09-07T09:31:51.703Z,26.49
2022-09-07T09:32:51.788Z,26.71
2022-09-07T09:33:51.890Z,26.83
2022-09-07T09:34:51.729Z,26.66
2022-09-07T09:35:51.670Z,26.83
2022-09-07T09:36:51.719Z,27.47
2022-09-07T09:37:51.879Z,27.38
2022-09-07T09:38:51.798Z,27.75
2022-09-07T09:39:54.447Z,28.09
2022-09-07T09:40:51.719Z,28.80
2022-09-07T09:41:51.878Z,29.52
2022-09-07T09:42:51.723Z,29.80
2022-09-07T09:43:51.720Z,30.17
2022-09-07T09:44:51.556Z,30.58
2022-09-07T09:47:29.605Z,30.56
2022-09-07T09:47:51.612Z,30.71
2022-09-07T09:48:51.593Z,30.10
2022-09-07T09:49:51.558Z,29.53
2022-09-07T09:52:52.180Z,30.63
2022-09-07T09:53:51.589Z,30.52
2022-09-07T09:54:51.488Z,30.91
2022-09-07T09:55:51.632Z,31.29
2022-09-07T09:56:51.408Z,31.70
2022-09-07T09:59:56.924Z,32.00
2022-09-07T10:00:08.432Z,32.26
2022-09-07T10:03:59.395Z,32.15
2022-09-07T10:04:51.467Z,31.37
2022-09-07T10:05:51.363Z,30.52
2022-09-07T10:06:51.414Z,29.40
2022-09-07T10:07:51.264Z,28.49
2022-09-07T10:08:51.244Z,28.18
2022-09-07T10:09:51.238Z,28.10
2022-09-07T10:10:51.489Z,27.94
2022-09-07T10:12:07.767Z,27.97
2022-09-07T10:12:51.408Z,28.03
2022-09-07T10:13:51.248Z,28.00
2022-09-07T10:14:51.412Z,27.85
2022-09-07T10:15:51.281Z,27.57
2022-09-07T10:16:51.208Z,27.52
2022-09-07T10:17:51.490Z,27.38
2022-09-07T10:18:51.112Z,27.33
2022-09-07T10:19:52.609Z,27.48
2022-09-07T10:20:51.083Z,27.86
2022-09-07T10:21:51.313Z,28.52
2022-09-07T10:22:51.663Z,29.16
2022-09-07T10:23:51.246Z,30.21
2022-09-07T10:24:51.084Z,30.78
2022-09-07T10:25:51.304Z,31.28
2022-09-07T10:26:51.084Z,31.89
2022-09-07T10:27:51.319Z,32.27
2022-09-07T10:29:07.035Z,32.53
2022-09-07T10:29:50.988Z,32.64
2022-09-07T10:30:51.138Z,32.83
2022-09-07T10:31:50.951Z,32.86
2022-09-07T10:32:51.159Z,32.91
2022-09-07T10:34:51.079Z,32.23
2022-09-07T10:35:50.920Z,31.66
2022-09-07T10:36:50.903Z,31.77
2022-09-07T10:37:50.994Z,31.87
2022-09-07T10:38:50.853Z,32.07
2022-09-07T10:39:50.959Z,32.24
2022-09-07T10:40:50.835Z,32.12
2022-09-07T10:41:50.924Z,31.82
2022-09-07T10:43:51.004Z,31.85
2022-09-07T10:44:50.773Z,31.90
2022-09-07T10:45:50.816Z,31.85
2022-09-07T10:46:58.353Z,31.79
2022-09-07T10:47:50.939Z,31.63
2022-09-07T10:48:50.884Z,31.32
2022-09-07T10:50:50.768Z,30.38
2022-09-07T10:51:50.689Z,30.01
2022-09-07T10:52:50.670Z,29.76
2022-09-07T10:54:30.066Z,29.53
2022-09-07T10:54:50.727Z,29.22
2022-09-07T10:55:50.924Z,29.13
2022-09-07T10:56:50.764Z,28.96
2022-09-07T10:57:50.613Z,28.77
2022-09-07T10:59:06.103Z,28.62
2022-09-07T11:00:50.633Z,28.08
2022-09-07T11:01:50.630Z,27.91
2022-09-07T11:03:50.670Z,27.72
2022-09-07T11:04:50.559Z,27.68
2022-09-07T11:05:50.669Z,27.50
2022-09-07T11:06:50.493Z,27.37
2022-09-07T11:07:50.622Z,27.50
2022-09-07T11:09:50.460Z,27.61
2022-09-07T11:10:50.450Z,27.53
2022-09-07T11:12:05.866Z,27.48
2022-09-07T11:12:50.459Z,27.45
2022-09-07T11:14:12.141Z,27.41
2022-09-07T11:14:50.443Z,27.45
2022-09-07T11:15:50.730Z,27.57
2022-09-07T11:16:51.191Z,27.60
2022-09-07T11:17:52.987Z,27.48
2022-09-07T11:18:50.674Z,27.37
2022-09-07T11:19:50.313Z,27.55
2022-09-07T11:20:50.455Z,27.73
2022-09-07T11:21:57.528Z,27.90
2022-09-07T11:22:50.443Z,27.72
2022-09-07T11:23:50.289Z,27.53
2022-09-07T11:25:52.142Z,27.23
2022-09-07T11:26:50.519Z,27.16
2022-09-07T11:27:50.289Z,27.15
2022-09-07T11:29:29.227Z,27.18
2022-09-07T11:29:50.288Z,27.23
2022-09-07T11:30:50.319Z,27.13
2022-09-07T11:31:50.279Z,27.15
2022-09-07T11:32:50.534Z,27.19
2022-09-07T11:34:52.085Z,27.20
2022-09-07T11:35:50.115Z,27.30
2022-09-07T11:36:50.136Z,27.28
2022-09-07T11:37:50.143Z,27.29
2022-09-07T11:38:50.133Z,27.29
2022-09-07T11:39:50.114Z,27.33
2022-09-07T11:40:50.124Z,27.28
2022-09-07T11:41:50.298Z,27.26
2022-09-07T11:42:50.197Z,27.34
2022-09-07T11:43:50.029Z,27.26
2022-09-07T11:44:50.119Z,27.43
2022-09-07T11:45:50.057Z,27.45
2022-09-07T11:46:50.119Z,27.55
2022-09-07T11:47:50.032Z,27.71
2022-09-07T11:48:50.119Z,27.82
2022-09-07T11:49:53.294Z,27.81
2022-09-07T11:50:50.118Z,27.68
2022-09-07T11:51:53.551Z,27.63
2022-09-07T11:52:53.567Z,27.57
2022-09-07T11:53:49.995Z,27.58
2022-09-07T11:54:49.906Z,27.43
2022-09-07T11:55:49.953Z,27.25
2022-09-07T11:56:49.856Z,27.07
2022-09-07T11:57:54.866Z,26.93
2022-09-07T11:58:49.883Z,26.97
2022-09-07T11:59:49.794Z,26.96
2022-09-07T12:00:49.798Z,27.03
2022-09-07T12:01:49.959Z,26.97
2022-09-07T12:02:59.248Z,27.11
2022-09-07T12:03:49.953Z,27.04
2022-09-07T12:04:54.140Z,27.03
2022-09-07T12:05:49.738Z,27.07
2022-09-07T12:06:49.808Z,27.15
2022-09-07T12:07:49.709Z,27.15
2022-09-07T12:08:49.810Z,27.01
2022-09-07T12:09:50.033Z,27.10
2022-09-07T12:10:49.803Z,27.11
2022-09-07T12:11:49.654Z,27.19
2022-09-07T12:12:49.816Z,26.93
2022-09-07T12:13:49.643Z,26.74
2022-09-07T12:14:49.664Z,26.60
2022-09-07T12:15:49.705Z,26.48
2022-09-07T12:16:49.796Z,26.52
2022-09-07T12:17:49.654Z,26.49
2022-09-07T12:18:49.573Z,26.49
2022-09-07T12:19:49.721Z,26.44
2022-09-07T12:20:49.798Z,26.45
2022-09-07T12:21:49.519Z,26.51
2022-09-07T12:22:49.499Z,26.53
2022-09-07T12:23:49.501Z,26.60
2022-09-07T12:24:49.549Z,26.59
2022-09-07T12:25:49.469Z,26.56
2022-09-07T12:26:49.479Z,26.66
2022-09-07T12:27:49.639Z,26.74
2022-09-07T12:28:49.484Z,26.81
2022-09-07T12:29:49.405Z,26.71
2022-09-07T12:30:49.691Z,26.81
2022-09-07T12:31:58.344Z,26.88
2022-09-07T12:32:53.957Z,26.97
2022-09-07T12:33:49.354Z,27.11
2022-09-07T12:34:49.473Z,27.20
2022-09-07T12:35:49.396Z,27.22
2022-09-07T12:36:49.304Z,27.11
2022-09-07T12:37:49.314Z,27.18
2022-09-07T12:38:49.479Z,27.19
2022-09-07T12:39:49.456Z,27.19
2022-09-07T12:40:49.322Z,27.29
2022-09-07T12:41:49.446Z,27.23
2022-09-07T12:42:49.478Z,27.08
2022-09-07T12:43:49.318Z,27.03
2022-09-07T12:44:49.199Z,27.05
2022-09-07T12:45:49.374Z,27.16
2022-09-07T12:46:49.258Z,27.23
2022-09-07T12:47:49.305Z,27.26
2022-09-07T12:48:49.165Z,27.38
2022-09-07T12:49:49.339Z,27.43
2022-09-07T12:50:49.164Z,27.41
2022-09-07T12:52:14.234Z,27.48
2022-09-07T12:52:49.158Z,27.58
2022-09-07T12:53:50.599Z,27.63
2022-09-07T12:55:04.358Z,27.58
2022-09-07T12:57:28.991Z,27.66
2022-09-07T12:57:49.329Z,27.75
2022-09-07T12:58:49.186Z,27.88
2022-09-07T12:59:49.010Z,27.95
2022-09-07T13:00:49.160Z,27.94
2022-09-07T13:01:49.189Z,27.88
2022-09-07T13:02:49.113Z,27.91
2022-09-07T13:03:51.381Z,27.95
2022-09-07T13:04:49.158Z,28.00
2022-09-07T13:05:48.999Z,27.95
2022-09-07T13:07:04.310Z,27.91
2022-09-07T13:07:49.004Z,27.85
2022-09-07T13:08:48.883Z,27.83
2022-09-07T13:09:49.004Z,27.79
2022-09-07T13:10:49.471Z,27.72
2022-09-07T13:11:48.848Z,27.48
2022-09-07T13:13:04.226Z,27.16
2022-09-07T13:14:06.255Z,27.11
2022-09-07T13:14:48.835Z,27.11
2022-09-07T13:15:49.079Z,27.00
2022-09-07T13:17:48.828Z,27.07
2022-09-07T13:18:48.839Z,27.05
2022-09-07T13:19:48.999Z,27.01
2022-09-07T13:20:48.838Z,26.98
2022-09-07T13:21:48.709Z,26.98
2022-09-07T13:22:48.909Z,26.98
2022-09-07T13:23:48.689Z,26.96
2022-09-07T13:24:48.669Z,26.93
2022-09-07T13:25:48.693Z,26.89
2022-09-07T13:26:51.180Z,26.82
2022-09-07T13:27:48.644Z,26.67
2022-09-07T13:28:48.674Z,26.61
2022-09-07T13:29:48.684Z,26.55
2022-09-07T13:30:48.611Z,26.56
2022-09-07T13:31:48.684Z,26.60